createdAt,value
2019-06-26T00:00:25.207Z,101.07
2019-06-26T00:02:52.115Z,104.83
2019-06-26T00:05:18.896Z,104.10
2019-06-26T00:07:45.543Z,103.70
2019-06-26T00:10:12.818Z,110.47
2019-06-26T00:12:39.682Z,105.13
2019-06-26T00:15:07.074Z,106.33
2019-06-26T00:17:35.106Z,114.30
2019-06-26T00:20:02.826Z,109.27
2019-06-26T00:22:29.471Z,106.87
2019-06-26T00:24:56.160Z,109.93
2019-06-26T00:27:23.286Z,113.47
2019-06-26T00:29:49.928Z,115.53
2019-06-26T00:32:16.526Z,110.73
2019-06-26T00:34:43.296Z,113.90
2019-06-26T00:37:10.150Z,113.40
2019-06-26T00:39:36.859Z,112.07
2019-06-26T00:42:07.176Z,107.87
2019-06-26T00:44:33.770Z,108.33
2019-06-26T00:47:00.488Z,109.43
2019-06-26T00:49:27.397Z,106.87
2019-06-26T00:51:54.103Z,109.60
2019-06-26T00:54:20.834Z,109.00
2019-06-26T00:56:47.644Z,112.37
2019-06-26T00:59:14.380Z,110.63
2019-06-26T01:01:41.554Z,112.63
2019-06-26T01:04:10.078Z,109.13
2019-06-26T01:06:43.987Z,110.43
2019-06-26T01:09:12.256Z,112.87
2019-06-26T01:11:39.143Z,111.93
2019-06-26T01:14:05.855Z,112.57
2019-06-26T01:16:32.471Z,108.70
2019-06-26T01:18:59.153Z,105.80
2019-06-26T01:21:25.875Z,106.77
2019-06-26T01:23:52.557Z,104.43
2019-06-26T01:26:19.192Z,98.20
2019-06-26T01:28:45.853Z,110.80
2019-06-26T01:31:12.511Z,106.73
2019-06-26T01:33:41.082Z,107.53
2019-06-26T01:36:07.849Z,108.77
2019-06-26T01:38:34.471Z,111.13
2019-06-26T01:41:01.923Z,119.73
2019-06-26T01:43:37.219Z,109.20
2019-06-26T01:46:05.242Z,116.23
2019-06-26T01:48:36.908Z,119.17
2019-06-26T01:51:04.705Z,121.10
2019-06-26T01:53:37.856Z,125.17
2019-06-26T01:56:04.835Z,127.60
2019-06-26T01:58:31.568Z,126.40
2019-06-26T02:00:59.214Z,121.90
2019-06-26T02:03:28.408Z,122.10
2019-06-26T02:05:58.329Z,123.37
2019-06-26T02:08:26.640Z,127.03
2019-06-26T02:10:54.472Z,134.37
2019-06-26T02:13:21.352Z,128.07
2019-06-26T02:15:51.015Z,133.93
2019-06-26T02:18:35.484Z,134.93
2019-06-26T02:21:02.969Z,131.43
2019-06-26T02:23:30.213Z,138.53
2019-06-26T02:25:57.725Z,133.60
2019-06-26T02:28:24.854Z,144.37
2019-06-26T02:30:54.092Z,143.63
2019-06-26T02:33:22.863Z,139.00
2019-06-26T02:35:51.923Z,133.00
2019-06-26T02:38:20.427Z,127.23
2019-06-26T02:41:00.934Z,127.80
2019-06-26T02:43:27.800Z,126.63
2019-06-26T02:45:54.424Z,121.73
2019-06-26T02:48:21.042Z,123.70
2019-06-26T02:50:50.319Z,131.70
2019-06-26T02:53:16.910Z,125.23
2019-06-26T02:55:43.803Z,134.30
2019-06-26T02:58:10.669Z,127.83
2019-06-26T03:00:37.378Z,126.50
2019-06-26T03:03:04.069Z,123.53
2019-06-26T03:05:30.678Z,118.57
2019-06-26T03:07:57.266Z,117.60
2019-06-26T03:10:23.884Z,119.43
2019-06-26T03:12:50.623Z,122.60
2019-06-26T03:15:17.718Z,119.97
2019-06-26T03:17:54.727Z,125.97
2019-06-26T03:20:15.293Z,120.97
2019-06-26T03:22:41.903Z,117.30
2019-06-26T03:25:08.849Z,121.97
2019-06-26T03:27:35.690Z,122.53
2019-06-26T03:30:04.972Z,124.03
2019-06-26T03:32:31.758Z,132.67
2019-06-26T03:34:58.355Z,134.67
2019-06-26T03:37:24.966Z,125.77
2019-06-26T03:39:51.812Z,121.90
2019-06-26T03:42:21.234Z,119.40
2019-06-26T03:44:50.070Z,108.60
2019-06-26T03:47:16.851Z,108.37
2019-06-26T03:49:44.632Z,101.57
2019-06-26T03:52:25.481Z,100.73
2019-06-26T03:54:52.134Z,102.53
2019-06-26T03:57:19.255Z,106.97
2019-06-26T03:59:46.044Z,106.10
2019-06-26T04:02:12.667Z,109.17
2019-06-26T04:04:39.242Z,110.50
2019-06-26T04:07:05.853Z,110.63
2019-06-26T04:09:32.474Z,110.53
2019-06-26T04:11:59.323Z,104.13
2019-06-26T04:14:26.087Z,103.40
2019-06-26T04:16:52.781Z,100.40
2019-06-26T04:19:19.363Z,95.40
2019-06-26T04:21:45.990Z,97.40
2019-06-26T04:24:12.621Z,92.40
2019-06-26T04:26:39.214Z,90.27
2019-06-26T04:29:05.977Z,90.13
2019-06-26T04:31:32.584Z,83.23
2019-06-26T04:33:59.227Z,85.60
2019-06-26T04:36:25.837Z,88.13
2019-06-26T04:38:52.763Z,87.20
2019-06-26T04:41:19.687Z,95.37
2019-06-26T04:43:46.350Z,85.37
2019-06-26T04:46:13.056Z,89.60
2019-06-26T04:48:39.769Z,84.57
2019-06-26T04:51:06.509Z,87.27
2019-06-26T04:53:34.494Z,84.10
2019-06-26T04:56:01.159Z,82.23
2019-06-26T04:58:27.711Z,78.80
2019-06-26T05:00:54.513Z,74.20
2019-06-26T05:03:21.326Z,81.67
2019-06-26T05:05:48.444Z,81.07
2019-06-26T05:08:15.119Z,76.13
2019-06-26T05:10:41.746Z,76.23
2019-06-26T05:13:08.819Z,73.97
2019-06-26T05:15:35.430Z,72.07
2019-06-26T05:18:02.075Z,68.07
2019-06-26T05:20:28.695Z,67.33
2019-06-26T05:22:55.392Z,68.27
2019-06-26T05:25:22.156Z,68.57
2019-06-26T05:27:48.874Z,69.70
2019-06-26T05:30:16.192Z,77.67
2019-06-26T05:32:42.774Z,76.60
2019-06-26T05:35:10.000Z,76.80
2019-06-26T05:37:36.833Z,76.70
2019-06-26T05:40:07.252Z,80.83
2019-06-26T05:42:33.857Z,82.90
2019-06-26T05:45:00.460Z,81.27
2019-06-26T05:47:27.323Z,80.23
2019-06-26T05:49:53.993Z,84.13
2019-06-26T05:52:20.694Z,80.50
2019-06-26T05:54:47.456Z,84.97
2019-06-26T05:57:14.107Z,79.80
2019-06-26T05:59:40.837Z,88.77
2019-06-26T06:02:08.641Z,88.57
2019-06-26T06:04:35.375Z,94.53
2019-06-26T06:07:04.024Z,92.33
2019-06-26T06:09:30.892Z,93.47
2019-06-26T06:11:57.609Z,97.13
2019-06-26T06:14:24.333Z,98.33
2019-06-26T06:16:50.957Z,93.00
2019-06-26T06:19:17.795Z,94.97
2019-06-26T06:21:44.726Z,97.20
2019-06-26T06:24:11.546Z,95.97
2019-06-26T06:26:38.318Z,97.23
2019-06-26T06:29:04.978Z,96.83
2019-06-26T06:31:31.572Z,104.40
2019-06-26T06:33:58.391Z,101.40
2019-06-26T06:36:25.197Z,108.33
2019-06-26T06:38:51.949Z,103.67
2019-06-26T06:41:18.573Z,104.00
2019-06-26T06:43:45.270Z,99.40
2019-06-26T06:46:11.900Z,95.87
2019-06-26T06:48:38.818Z,98.83
2019-06-26T06:51:05.587Z,98.03
2019-06-26T06:53:32.367Z,98.00
2019-06-26T06:55:59.094Z,100.50
2019-06-26T06:58:30.154Z,101.77
2019-06-26T07:00:57.345Z,101.63
2019-06-26T07:03:25.833Z,98.40
2019-06-26T07:05:53.479Z,103.23
2019-06-26T07:08:22.759Z,103.17
2019-06-26T07:10:51.825Z,101.70
2019-06-26T07:13:20.772Z,99.03
2019-06-26T07:15:50.095Z,98.93
2019-06-26T07:18:19.528Z,96.13
2019-06-26T07:20:52.360Z,98.97
2019-06-26T07:23:22.776Z,101.60
2019-06-26T07:25:52.294Z,102.57
2019-06-26T07:28:21.171Z,98.17
2019-06-26T07:30:49.989Z,94.77
2019-06-26T07:33:19.127Z,95.67
2019-06-26T07:35:46.350Z,92.90
2019-06-26T07:38:14.943Z,88.60
2019-06-26T07:40:43.860Z,87.20
2019-06-26T07:43:16.336Z,81.33
2019-06-26T07:45:42.482Z,83.57
2019-06-26T07:48:12.739Z,77.90
2019-06-26T07:50:42.829Z,75.63
2019-06-26T07:53:12.105Z,64.93
2019-06-26T07:55:43.672Z,66.10
2019-06-26T07:58:14.518Z,62.13
2019-06-26T08:00:43.301Z,66.80
2019-06-26T08:03:11.567Z,64.77
2019-06-26T08:05:42.652Z,66.13
2019-06-26T08:08:14.205Z,61.87
2019-06-26T08:10:40.740Z,63.10
2019-06-26T08:13:10.321Z,64.53
2019-06-26T08:15:39.242Z,60.43
2019-06-26T08:18:07.494Z,62.47
2019-06-26T08:20:51.960Z,63.37
2019-06-26T08:23:11.572Z,63.83
2019-06-26T08:25:40.363Z,66.67
2019-06-26T08:28:09.160Z,62.20
2019-06-26T08:30:41.677Z,64.07
2019-06-26T08:33:09.516Z,65.87
2019-06-26T08:35:39.794Z,64.13
2019-06-26T08:38:15.480Z,63.47
2019-06-26T08:40:41.066Z,63.00
2019-06-26T08:43:09.479Z,61.77
2019-06-26T08:45:36.611Z,62.37
2019-06-26T08:48:17.306Z,61.77
2019-06-26T08:50:32.880Z,68.67
2019-06-26T08:52:59.716Z,67.33
2019-06-26T08:55:27.600Z,67.83
2019-06-26T08:57:55.426Z,60.53
2019-06-26T09:00:24.451Z,64.43
2019-06-26T09:02:51.952Z,65.27
2019-06-26T09:05:18.774Z,68.07
2019-06-26T09:07:46.996Z,66.20
2019-06-26T09:10:16.302Z,66.93
2019-06-26T09:12:44.747Z,63.10
2019-06-26T09:15:12.059Z,61.87
2019-06-26T09:17:39.982Z,65.50
2019-06-26T09:20:08.016Z,61.83
2019-06-26T09:22:36.940Z,59.83
2019-06-26T09:25:20.933Z,63.40
2019-06-26T09:27:36.233Z,60.50
2019-06-26T09:30:08.144Z,58.13
2019-06-26T09:32:35.196Z,53.47
2019-06-26T09:35:03.433Z,57.23
2019-06-26T09:37:31.530Z,57.17
2019-06-26T09:40:00.577Z,55.93
2019-06-26T09:42:31.281Z,53.87
2019-06-26T09:44:58.289Z,54.03
2019-06-26T09:47:30.835Z,56.93
2019-06-26T09:50:00.902Z,51.97
2019-06-26T09:52:29.543Z,48.27
2019-06-26T09:54:57.731Z,50.97
2019-06-26T09:57:25.811Z,49.83
2019-06-26T09:59:52.483Z,56.23
2019-06-26T10:02:19.704Z,50.67
2019-06-26T10:04:46.363Z,51.07
2019-06-26T10:07:13.249Z,51.10
2019-06-26T10:09:40.051Z,51.20
2019-06-26T10:12:07.379Z,52.70
2019-06-26T10:14:46.459Z,50.63
2019-06-26T10:17:02.556Z,49.97
2019-06-26T10:19:29.557Z,51.10
2019-06-26T10:21:56.203Z,48.50
2019-06-26T10:24:23.149Z,51.67
2019-06-26T10:26:49.858Z,49.33
2019-06-26T10:29:16.690Z,50.83
2019-06-26T10:31:43.464Z,51.30
2019-06-26T10:34:10.527Z,46.93
2019-06-26T10:36:37.262Z,50.10
2019-06-26T10:39:06.252Z,50.93
2019-06-26T10:41:33.499Z,50.77
2019-06-26T10:44:01.693Z,52.57
2019-06-26T10:46:29.017Z,52.63
2019-06-26T10:49:00.219Z,54.93
2019-06-26T10:51:31.231Z,50.20
2019-06-26T10:54:00.585Z,47.17
2019-06-26T10:56:28.900Z,49.50
2019-06-26T10:59:06.391Z,51.47
2019-06-26T11:01:34.467Z,53.37
2019-06-26T11:04:03.081Z,45.87
2019-06-26T11:06:32.074Z,52.67
2019-06-26T11:09:02.398Z,50.43
2019-06-26T11:11:34.349Z,50.90
2019-06-26T11:14:03.050Z,49.97
2019-06-26T11:16:37.040Z,48.33
2019-06-26T11:19:06.003Z,51.70
2019-06-26T11:21:34.327Z,50.23
2019-06-26T11:24:13.121Z,50.37
2019-06-26T11:26:41.517Z,51.40
2019-06-26T11:29:10.788Z,52.33
2019-06-26T11:31:46.103Z,47.10
2019-06-26T11:34:17.006Z,49.57
2019-06-26T11:37:02.382Z,52.73
2019-06-26T11:39:17.827Z,53.73
2019-06-26T11:41:45.967Z,49.47
2019-06-26T11:44:13.980Z,49.93
2019-06-26T11:46:41.942Z,47.20
2019-06-26T11:49:11.774Z,50.60
2019-06-26T11:51:42.313Z,52.60
2019-06-26T11:54:09.096Z,50.93
2019-06-26T11:56:36.812Z,51.97
2019-06-26T11:59:09.726Z,48.53
2019-06-26T12:01:40.671Z,53.60
2019-06-26T12:04:10.174Z,47.83
2019-06-26T12:06:41.156Z,53.40
2019-06-26T12:09:12.334Z,53.63
2019-06-26T12:11:40.679Z,54.27
2019-06-26T12:14:08.738Z,55.67
2019-06-26T12:16:36.746Z,49.37
2019-06-26T12:19:05.952Z,54.40
2019-06-26T12:21:33.082Z,54.77
2019-06-26T12:24:00.799Z,55.67
2019-06-26T12:26:27.638Z,53.67
2019-06-26T12:28:54.312Z,50.50
2019-06-26T12:31:21.154Z,53.17
2019-06-26T12:33:47.882Z,55.83
2019-06-26T12:36:14.588Z,57.40
2019-06-26T12:38:41.303Z,50.00
2019-06-26T12:41:07.919Z,53.90
2019-06-26T12:43:34.524Z,59.30
2019-06-26T12:46:01.847Z,56.53
2019-06-26T12:48:28.486Z,53.63
2019-06-26T12:50:55.106Z,54.10
2019-06-26T12:53:22.728Z,49.63
2019-06-26T12:55:51.738Z,54.43
2019-06-26T12:58:21.717Z,49.40
2019-06-26T13:00:49.395Z,50.57
2019-06-26T13:03:17.390Z,46.00
2019-06-26T13:05:45.616Z,48.03
2019-06-26T13:08:13.170Z,54.57
2019-06-26T13:10:49.440Z,55.63
2019-06-26T13:13:09.034Z,49.60
2019-06-26T13:15:36.923Z,53.63
2019-06-26T13:18:04.575Z,55.77
2019-06-26T13:20:51.600Z,58.30
2019-06-26T13:23:08.973Z,59.53
2019-06-26T13:25:36.165Z,58.73
2019-06-26T13:28:03.039Z,62.57
2019-06-26T13:30:38.256Z,61.47
2019-06-26T13:33:05.978Z,61.03
2019-06-26T13:35:35.068Z,54.70
2019-06-26T13:38:05.868Z,49.17
2019-06-26T13:40:35.572Z,59.30
2019-06-26T13:43:02.752Z,62.73
2019-06-26T13:45:30.957Z,67.17
2019-06-26T13:48:07.685Z,55.87
2019-06-26T13:50:32.786Z,64.47
2019-06-26T13:53:01.521Z,56.03
2019-06-26T13:55:30.298Z,56.07
2019-06-26T13:57:57.570Z,48.73
2019-06-26T14:00:24.770Z,44.60
2019-06-26T14:02:54.442Z,50.63
2019-06-26T14:05:29.366Z,40.17
2019-06-26T14:08:02.142Z,37.97
2019-06-26T14:10:30.388Z,40.47
2019-06-26T14:13:03.682Z,39.17
2019-06-26T14:15:32.220Z,40.43
2019-06-26T14:18:05.210Z,39.77
2019-06-26T14:20:41.555Z,41.93
2019-06-26T14:23:09.676Z,39.90
2019-06-26T14:25:36.478Z,42.60
2019-06-26T14:28:11.070Z,40.27
2019-06-26T14:30:43.361Z,38.07
2019-06-26T14:33:10.022Z,42.60
2019-06-26T14:35:36.742Z,40.10
2019-06-26T14:38:04.620Z,40.20
2019-06-26T14:40:31.769Z,40.33
2019-06-26T14:42:58.560Z,38.07
2019-06-26T14:45:25.424Z,37.03
2019-06-26T14:48:05.438Z,34.63
2019-06-26T14:50:32.059Z,35.17
2019-06-26T14:52:59.050Z,35.43
2019-06-26T14:55:25.716Z,35.50
2019-06-26T14:57:52.311Z,33.03
2019-06-26T15:00:19.479Z,37.13
2019-06-26T15:02:46.198Z,39.57
2019-06-26T15:05:13.262Z,36.30
2019-06-26T15:07:39.998Z,31.97
2019-06-26T15:10:07.601Z,37.53
2019-06-26T15:12:34.455Z,32.63
2019-06-26T15:15:01.207Z,36.77
2019-06-26T15:17:27.936Z,36.30
2019-06-26T15:19:54.644Z,35.93
2019-06-26T15:22:21.405Z,34.87
2019-06-26T15:24:48.165Z,37.37
2019-06-26T15:27:14.895Z,32.43
2019-06-26T15:29:41.629Z,32.53
2019-06-26T15:32:08.300Z,32.43
2019-06-26T15:34:35.026Z,32.93
2019-06-26T15:37:01.825Z,30.37
2019-06-26T15:39:28.514Z,32.60
2019-06-26T15:41:55.224Z,32.57
2019-06-26T15:44:22.214Z,34.93
2019-06-26T15:46:49.349Z,35.20
2019-06-26T15:49:16.530Z,38.73
2019-06-26T15:51:43.374Z,34.80
2019-06-26T15:54:10.172Z,37.77
2019-06-26T15:56:36.840Z,55.10
2019-06-26T15:59:03.533Z,32.70
2019-06-26T16:01:30.370Z,34.23
2019-06-26T16:03:57.386Z,46.60
2019-06-26T16:06:24.310Z,34.67
2019-06-26T16:08:51.204Z,37.63
2019-06-26T16:11:17.888Z,32.17
2019-06-26T16:13:44.649Z,34.23
2019-06-26T16:16:11.389Z,35.13
2019-06-26T16:18:43.287Z,35.00
2019-06-26T16:21:09.896Z,34.67
2019-06-26T16:23:36.586Z,33.57
2019-06-26T16:26:03.557Z,34.47
2019-06-26T16:28:30.265Z,32.80
2019-06-26T16:30:56.893Z,34.60
2019-06-26T16:33:23.485Z,29.63
2019-06-26T16:35:50.049Z,34.90
2019-06-26T16:38:16.683Z,30.67
2019-06-26T16:40:43.641Z,33.90
2019-06-26T16:43:10.397Z,33.60
2019-06-26T16:45:37.180Z,34.73
2019-06-26T16:48:04.088Z,33.40
2019-06-26T16:50:30.837Z,37.77
2019-06-26T16:52:57.649Z,32.80
2019-06-26T16:55:24.282Z,33.97
2019-06-26T16:57:51.284Z,32.13
2019-06-26T17:00:18.336Z,38.77
2019-06-26T17:02:45.074Z,38.60
2019-06-26T17:05:14.014Z,38.57
2019-06-26T17:07:40.876Z,40.33
2019-06-26T17:10:08.447Z,41.33
2019-06-26T17:12:35.225Z,43.50
2019-06-26T17:15:07.213Z,39.90
2019-06-26T17:17:34.076Z,42.67
2019-06-26T17:20:00.907Z,41.47
2019-06-26T17:22:27.571Z,38.33
2019-06-26T17:24:54.231Z,38.27
2019-06-26T17:27:20.958Z,36.63
2019-06-26T17:29:47.727Z,34.97
2019-06-26T17:32:14.494Z,33.10
2019-06-26T17:34:41.179Z,30.03
2019-06-26T17:37:07.873Z,26.33
2019-06-26T17:39:35.005Z,22.87
2019-06-26T17:42:01.765Z,21.93
2019-06-26T17:44:28.702Z,21.10
2019-06-26T17:46:55.534Z,15.57
2019-06-26T17:49:22.176Z,17.30
2019-06-26T17:51:48.986Z,14.97
2019-06-26T17:54:15.674Z,15.70
2019-06-26T17:56:42.455Z,14.50
2019-06-26T17:59:09.211Z,13.23
2019-06-26T18:01:36.003Z,14.30
2019-06-26T18:04:05.978Z,12.13
2019-06-26T18:06:32.454Z,12.03
2019-06-26T18:08:59.181Z,14.67
2019-06-26T18:11:25.826Z,12.27
2019-06-26T18:13:53.613Z,14.47
2019-06-26T18:16:20.247Z,12.57
2019-06-26T18:18:47.005Z,12.27
2019-06-26T18:21:13.730Z,10.70
2019-06-26T18:23:40.379Z,10.07
2019-06-26T18:26:12.948Z,12.30
2019-06-26T18:28:35.512Z,9.10
2019-06-26T18:31:02.474Z,8.67
2019-06-26T18:33:29.330Z,7.90
2019-06-26T18:35:56.019Z,6.40
2019-06-26T18:38:22.625Z,5.20
2019-06-26T18:40:49.336Z,7.13
2019-06-26T18:43:16.280Z,11.07
2019-06-26T18:45:43.101Z,6.47
2019-06-26T18:48:09.738Z,6.50
2019-06-26T18:50:36.402Z,6.07
2019-06-26T18:53:03.342Z,10.33
2019-06-26T18:55:30.199Z,7.23
2019-06-26T18:57:56.892Z,6.83
2019-06-26T19:00:23.795Z,8.77
2019-06-26T19:02:50.452Z,5.63
2019-06-26T19:05:17.441Z,8.77
2019-06-26T19:07:45.419Z,8.57
2019-06-26T19:10:12.458Z,9.23
2019-06-26T19:12:39.305Z,8.47
2019-06-26T19:15:06.563Z,8.23
2019-06-26T19:17:33.462Z,9.33
2019-06-26T19:20:00.138Z,8.03
2019-06-26T19:22:26.773Z,8.00
2019-06-26T19:24:53.428Z,6.50
2019-06-26T19:27:20.278Z,6.23
2019-06-26T19:29:48.021Z,8.43
2019-06-26T19:32:14.663Z,6.77
2019-06-26T19:34:41.361Z,6.47
2019-06-26T19:37:08.356Z,8.00
2019-06-26T19:39:35.219Z,5.97
2019-06-26T19:42:02.836Z,8.27
2019-06-26T19:44:29.615Z,9.40
2019-06-26T19:46:56.222Z,7.17
2019-06-26T19:49:23.989Z,5.83
2019-06-26T19:51:50.810Z,9.10
2019-06-26T19:54:26.971Z,7.77
2019-06-26T19:56:49.315Z,6.10
2019-06-26T19:59:17.987Z,6.17
2019-06-26T20:01:44.601Z,11.07
2019-06-26T20:04:11.510Z,5.27
2019-06-26T20:06:38.494Z,7.17
2019-06-26T20:09:05.687Z,4.77
2019-06-26T20:11:32.980Z,7.07
2019-06-26T20:13:59.769Z,5.47
2019-06-26T20:16:26.418Z,5.60
2019-06-26T20:18:53.197Z,7.50
2019-06-26T20:21:21.436Z,10.20
2019-06-26T20:23:48.328Z,5.90
2019-06-26T20:26:15.275Z,6.07
2019-06-26T20:28:42.023Z,5.23
2019-06-26T20:31:09.114Z,5.60
2019-06-26T20:33:35.852Z,7.23
2019-06-26T20:36:13.932Z,7.87
2019-06-26T20:38:48.756Z,4.50
2019-06-26T20:41:17.500Z,5.60
2019-06-26T20:43:45.773Z,4.87
2019-06-26T20:46:15.964Z,4.90
2019-06-26T20:48:45.065Z,6.90
2019-06-26T20:51:13.162Z,5.87
2019-06-26T20:53:42.506Z,5.90
2019-06-26T20:56:13.476Z,6.17
2019-06-26T20:58:42.052Z,5.17
2019-06-26T21:01:10.463Z,5.37
2019-06-26T21:03:37.644Z,10.20
2019-06-26T21:06:09.339Z,4.43
2019-06-26T21:08:36.609Z,5.43
2019-06-26T21:11:04.679Z,9.50
2019-06-26T21:13:31.909Z,7.53
2019-06-26T21:16:00.296Z,6.03
2019-06-26T21:18:29.460Z,5.60
2019-06-26T21:20:58.476Z,5.43
2019-06-26T21:23:26.368Z,6.10
2019-06-26T21:25:54.256Z,5.07
2019-06-26T21:28:21.946Z,7.57
2019-06-26T21:30:54.675Z,6.83
2019-06-26T21:33:24.709Z,8.30
2019-06-26T21:35:52.639Z,6.50
2019-06-26T21:38:19.956Z,7.00
2019-06-26T21:40:47.988Z,6.37
2019-06-26T21:43:14.708Z,6.83
2019-06-26T21:45:42.187Z,7.43
2019-06-26T21:48:08.919Z,7.50
2019-06-26T21:50:41.527Z,7.30
2019-06-26T21:53:11.301Z,7.87
2019-06-26T21:55:40.066Z,6.40
2019-06-26T21:58:27.210Z,7.07
2019-06-26T22:01:16.303Z,9.47
2019-06-26T22:04:03.002Z,10.13
2019-06-26T22:06:37.565Z,8.87
2019-06-26T22:09:13.836Z,10.53
2019-06-26T22:11:47.484Z,7.43
2019-06-26T22:14:15.016Z,11.13
2019-06-26T22:16:42.704Z,9.93
2019-06-26T22:19:11.372Z,10.47
2019-06-26T22:21:40.087Z,11.77
2019-06-26T22:24:09.367Z,6.27
2019-06-26T22:26:46.729Z,7.13
2019-06-26T22:29:16.168Z,9.73
2019-06-26T22:31:45.770Z,9.43
2019-06-26T22:34:14.306Z,7.97
2019-06-26T22:36:51.054Z,11.40
2019-06-26T22:39:14.988Z,7.00
2019-06-26T22:41:44.130Z,8.47
2019-06-26T22:44:12.982Z,9.33
2019-06-26T22:46:39.750Z,13.63
2019-06-26T22:49:07.195Z,12.47
2019-06-26T22:51:34.382Z,14.70
2019-06-26T22:54:04.808Z,9.83
2019-06-26T22:56:33.175Z,10.93
2019-06-26T22:59:00.348Z,10.20
2019-06-26T23:01:29.051Z,7.70
2019-06-26T23:03:56.065Z,10.57
2019-06-26T23:06:23.187Z,13.07
2019-06-26T23:08:53.260Z,10.47
2019-06-26T23:11:22.688Z,10.13
2019-06-26T23:13:51.897Z,10.40
2019-06-26T23:16:21.916Z,13.23
2019-06-26T23:18:48.532Z,11.47
2019-06-26T23:21:15.145Z,12.20
2019-06-26T23:23:41.833Z,9.97
2019-06-26T23:26:22.916Z,12.70
2019-06-26T23:28:40.432Z,8.67
2019-06-26T23:31:10.952Z,9.03
2019-06-26T23:33:40.349Z,6.93
2019-06-26T23:36:14.735Z,10.30
2019-06-26T23:38:41.940Z,11.90
2019-06-26T23:41:11.092Z,10.13
2019-06-26T23:43:38.570Z,12.60
2019-06-26T23:46:06.482Z,9.20
2019-06-26T23:48:34.090Z,10.53
2019-06-26T23:51:01.616Z,7.10
2019-06-26T23:53:28.985Z,10.33
2019-06-26T23:55:57.278Z,9.27
2019-06-26T23:58:31.817Z,12.50
